sensor_id;sensor_type;location;lat;lon;timestamp;P1;durP1;ratioP1;P2;durP2;ratioP2
211;SDS011;16228;48.800;9.002;2023-04-25T00:01:10;1.47;;;1.37;;
211;SDS011;16228;48.800;9.002;2023-04-25T00:03:38;1.67;;;1.40;;
211;SDS011;16228;48.800;9.002;2023-04-25T00:06:05;1.50;;;1.20;;
211;SDS011;16228;48.800;9.002;2023-04-25T00:08:33;1.50;;;1.40;;
211;SDS011;16228;48.800;9.002;2023-04-25T00:11:00;1.77;;;1.50;;
211;SDS011;16228;48.800;9.002;2023-04-25T00:13:27;1.80;;;1.50;;
211;SDS011;16228;48.800;9.002;2023-04-25T00:15:56;1.70;;;1.40;;
211;SDS011;16228;48.800;9.002;2023-04-25T00:18:23;1.53;;;1.43;;
211;SDS011;16228;48.800;9.002;2023-04-25T00:20:50;2.17;;;1.80;;
211;SDS011;16228;48.800;9.002;2023-04-25T00:23:17;1.60;;;1.30;;
211;SDS011;16228;48.800;9.002;2023-04-25T00:25:44;1.70;;;1.60;;
211;SDS011;16228;48.800;9.002;2023-04-25T00:28:11;1.77;;;1.50;;
211;SDS011;16228;48.800;9.002;2023-04-25T00:30:39;1.60;;;1.50;;
211;SDS011;16228;48.800;9.002;2023-04-25T00:33:08;1.60;;;1.50;;
211;SDS011;16228;48.800;9.002;2023-04-25T00:35:35;2.00;;;1.47;;
211;SDS011;16228;48.800;9.002;2023-04-25T00:38:03;3.93;;;1.57;;
211;SDS011;16228;48.800;9.002;2023-04-25T00:40:30;1.93;;;1.60;;
211;SDS011;16228;48.800;9.002;2023-04-25T00:42:57;1.53;;;1.43;;
211;SDS011;16228;48.800;9.002;2023-04-25T00:45:25;3.73;;;2.00;;
211;SDS011;16228;48.800;9.002;2023-04-25T00:47:54;1.97;;;1.70;;
211;SDS011;16228;48.800;9.002;2023-04-25T00:50:23;1.83;;;1.57;;
211;SDS011;16228;48.800;9.002;2023-04-25T00:52:50;3.10;;;1.67;;
211;SDS011;16228;48.800;9.002;2023-04-25T00:55:18;2.07;;;1.80;;
211;SDS011;16228;48.800;9.002;2023-04-25T00:57:45;1.70;;;1.60;;
211;SDS011;16228;48.800;9.002;2023-04-25T01:00:13;2.03;;;1.90;;
211;SDS011;16228;48.800;9.002;2023-04-25T01:02:41;2.20;;;2.00;;
211;SDS011;16228;48.800;9.002;2023-04-25T01:05:08;1.50;;;1.40;;
211;SDS011;16228;48.800;9.002;2023-04-25T01:07:36;3.63;;;2.10;;
211;SDS011;16228;48.800;9.002;2023-04-25T01:10:04;2.70;;;2.07;;
211;SDS011;16228;48.800;9.002;2023-04-25T01:12:32;3.43;;;2.30;;
211;SDS011;16228;48.800;9.002;2023-04-25T01:15:00;3.03;;;2.40;;
211;SDS011;16228;48.800;9.002;2023-04-25T01:17:27;3.23;;;2.90;;
211;SDS011;16228;48.800;9.002;2023-04-25T01:19:56;3.93;;;3.60;;
211;SDS011;16228;48.800;9.002;2023-04-25T01:22:25;3.47;;;3.27;;
211;SDS011;16228;48.800;9.002;2023-04-25T01:24:52;3.50;;;3.30;;
211;SDS011;16228;48.800;9.002;2023-04-25T01:27:19;5.80;;;4.27;;
211;SDS011;16228;48.800;9.002;2023-04-25T01:29:46;4.77;;;2.77;;
211;SDS011;16228;48.800;9.002;2023-04-25T01:32:14;3.33;;;3.13;;
211;SDS011;16228;48.800;9.002;2023-04-25T01:34:41;4.60;;;4.30;;
211;SDS011;16228;48.800;9.002;2023-04-25T01:37:08;4.10;;;3.70;;
211;SDS011;16228;48.800;9.002;2023-04-25T01:39:36;4.30;;;3.90;;
211;SDS011;16228;48.800;9.002;2023-04-25T01:42:04;3.53;;;3.33;;
211;SDS011;16228;48.800;9.002;2023-04-25T01:44:31;4.03;;;3.50;;
211;SDS011;16228;48.800;9.002;2023-04-25T01:46:58;4.50;;;4.07;;
211;SDS011;16228;48.800;9.002;2023-04-25T01:49:25;4.77;;;4.47;;
211;SDS011;16228;48.800;9.002;2023-04-25T01:51:52;4.33;;;4.03;;
211;SDS011;16228;48.800;9.002;2023-04-25T01:54:19;7.10;;;6.60;;
211;SDS011;16228;48.800;9.002;2023-04-25T01:56:51;5.07;;;4.57;;
211;SDS011;16228;48.800;9.002;2023-04-25T01:59:18;4.40;;;4.00;;
211;SDS011;16228;48.800;9.002;2023-04-25T02:01:47;4.50;;;4.30;;
211;SDS011;16228;48.800;9.002;2023-04-25T02:04:14;4.70;;;4.30;;
211;SDS011;16228;48.800;9.002;2023-04-25T02:06:41;4.93;;;4.63;;
211;SDS011;16228;48.800;9.002;2023-04-25T02:09:08;4.57;;;4.17;;
211;SDS011;16228;48.800;9.002;2023-04-25T02:11:34;4.43;;;4.03;;
211;SDS011;16228;48.800;9.002;2023-04-25T02:14:03;5.27;;;4.87;;
211;SDS011;16228;48.800;9.002;2023-04-25T02:16:30;5.00;;;4.70;;
211;SDS011;16228;48.800;9.002;2023-04-25T02:18:57;5.00;;;4.53;;
211;SDS011;16228;48.800;9.002;2023-04-25T02:21:24;6.60;;;5.10;;
211;SDS011;16228;48.800;9.002;2023-04-25T02:23:51;5.57;;;5.27;;
211;SDS011;16228;48.800;9.002;2023-04-25T02:26:19;6.33;;;5.83;;
211;SDS011;16228;48.800;9.002;2023-04-25T02:28:46;5.33;;;5.00;;
211;SDS011;16228;48.800;9.002;2023-04-25T02:31:14;6.10;;;5.60;;
211;SDS011;16228;48.800;9.002;2023-04-25T02:33:41;5.40;;;4.93;;
211;SDS011;16228;48.800;9.002;2023-04-25T02:36:09;5.40;;;4.87;;
211;SDS011;16228;48.800;9.002;2023-04-25T02:38:36;5.60;;;5.13;;
211;SDS011;16228;48.800;9.002;2023-04-25T02:41:03;6.27;;;5.67;;
211;SDS011;16228;48.800;9.002;2023-04-25T02:43:30;5.83;;;5.23;;
211;SDS011;16228;48.800;9.002;2023-04-25T02:45:57;5.97;;;5.57;;
211;SDS011;16228;48.800;9.002;2023-04-25T02:48:25;6.47;;;5.90;;
211;SDS011;16228;48.800;9.002;2023-04-25T02:50:53;7.30;;;6.47;;
211;SDS011;16228;48.800;9.002;2023-04-25T02:53:20;5.07;;;4.63;;
211;SDS011;16228;48.800;9.002;2023-04-25T02:55:47;5.63;;;5.17;;
211;SDS011;16228;48.800;9.002;2023-04-25T02:58:14;5.70;;;5.40;;
211;SDS011;16228;48.800;9.002;2023-04-25T03:00:42;6.33;;;5.93;;
211;SDS011;16228;48.800;9.002;2023-04-25T03:03:09;6.47;;;5.97;;
211;SDS011;16228;48.800;9.002;2023-04-25T03:05:37;6.80;;;6.40;;
211;SDS011;16228;48.800;9.002;2023-04-25T03:08:04;8.47;;;5.63;;
211;SDS011;16228;48.800;9.002;2023-04-25T03:10:31;5.47;;;5.07;;
211;SDS011;16228;48.800;9.002;2023-04-25T03:12:58;4.77;;;4.47;;
211;SDS011;16228;48.800;9.002;2023-04-25T03:15:25;5.27;;;4.90;;
211;SDS011;16228;48.800;9.002;2023-04-25T03:17:52;4.80;;;4.47;;
211;SDS011;16228;48.800;9.002;2023-04-25T03:20:19;4.67;;;4.27;;
211;SDS011;16228;48.800;9.002;2023-04-25T03:22:47;5.20;;;4.77;;
211;SDS011;16228;48.800;9.002;2023-04-25T03:25:14;5.50;;;5.10;;
211;SDS011;16228;48.800;9.002;2023-04-25T03:27:41;5.37;;;5.03;;
211;SDS011;16228;48.800;9.002;2023-04-25T03:30:08;4.93;;;4.53;;
211;SDS011;16228;48.800;9.002;2023-04-25T03:32:36;5.40;;;5.00;;
211;SDS011;16228;48.800;9.002;2023-04-25T03:35:03;4.17;;;3.77;;
211;SDS011;16228;48.800;9.002;2023-04-25T03:37:31;4.67;;;4.27;;
211;SDS011;16228;48.800;9.002;2023-04-25T03:39:59;3.50;;;3.20;;
211;SDS011;16228;48.800;9.002;2023-04-25T03:42:26;3.53;;;3.23;;
211;SDS011;16228;48.800;9.002;2023-04-25T03:44:53;5.90;;;3.87;;
211;SDS011;16228;48.800;9.002;2023-04-25T03:47:20;4.30;;;3.90;;
211;SDS011;16228;48.800;9.002;2023-04-25T03:49:47;4.20;;;3.90;;
211;SDS011;16228;48.800;9.002;2023-04-25T03:52:16;4.10;;;3.80;;
211;SDS011;16228;48.800;9.002;2023-04-25T03:54:43;4.80;;;4.43;;
211;SDS011;16228;48.800;9.002;2023-04-25T03:57:12;4.67;;;4.27;;
211;SDS011;16228;48.800;9.002;2023-04-25T03:59:39;3.87;;;3.57;;
211;SDS011;16228;48.800;9.002;2023-04-25T04:02:06;6.90;;;3.57;;
211;SDS011;16228;48.800;9.002;2023-04-25T04:04:33;5.53;;;3.20;;
211;SDS011;16228;48.800;9.002;2023-04-25T04:07:00;5.47;;;4.20;;
211;SDS011;16228;48.800;9.002;2023-04-25T04:09:27;4.70;;;4.30;;
211;SDS011;16228;48.800;9.002;2023-04-25T04:11:54;5.17;;;4.77;;
211;SDS011;16228;48.800;9.002;2023-04-25T04:14:23;6.67;;;5.23;;
211;SDS011;16228;48.800;9.002;2023-04-25T04:16:50;5.00;;;4.57;;
211;SDS011;16228;48.800;9.002;2023-04-25T04:19:17;5.37;;;4.97;;
211;SDS011;16228;48.800;9.002;2023-04-25T04:21:44;6.30;;;5.70;;
211;SDS011;16228;48.800;9.002;2023-04-25T04:24:11;6.50;;;5.83;;
211;SDS011;16228;48.800;9.002;2023-04-25T04:26:40;6.30;;;5.80;;
211;SDS011;16228;48.800;9.002;2023-04-25T04:29:10;5.73;;;5.23;;
211;SDS011;16228;48.800;9.002;2023-04-25T04:31:38;6.27;;;5.77;;
211;SDS011;16228;48.800;9.002;2023-04-25T04:34:05;5.93;;;5.37;;
211;SDS011;16228;48.800;9.002;2023-04-25T04:36:32;5.37;;;4.90;;
211;SDS011;16228;48.800;9.002;2023-04-25T04:38:59;5.53;;;4.50;;
211;SDS011;16228;48.800;9.002;2023-04-25T04:41:27;4.47;;;4.13;;
211;SDS011;16228;48.800;9.002;2023-04-25T04:43:54;5.70;;;4.30;;
211;SDS011;16228;48.800;9.002;2023-04-25T04:46:21;6.27;;;4.27;;
211;SDS011;16228;48.800;9.002;2023-04-25T04:48:51;4.30;;;4.00;;
211;SDS011;16228;48.800;9.002;2023-04-25T04:51:18;4.70;;;4.20;;
211;SDS011;16228;48.800;9.002;2023-04-25T04:53:45;4.30;;;4.00;;
211;SDS011;16228;48.800;9.002;2023-04-25T04:56:12;4.60;;;3.97;;
211;SDS011;16228;48.800;9.002;2023-04-25T04:58:40;5.57;;;4.23;;
211;SDS011;16228;48.800;9.002;2023-04-25T05:01:07;4.27;;;3.97;;
211;SDS011;16228;48.800;9.002;2023-04-25T05:03:34;7.27;;;3.70;;
211;SDS011;16228;48.800;9.002;2023-04-25T05:06:02;4.87;;;3.60;;
211;SDS011;16228;48.800;9.002;2023-04-25T05:08:30;4.37;;;3.07;;
211;SDS011;16228;48.800;9.002;2023-04-25T05:10:57;3.23;;;2.90;;
211;SDS011;16228;48.800;9.002;2023-04-25T05:13:24;3.87;;;2.97;;
211;SDS011;16228;48.800;9.002;2023-04-25T05:15:51;3.50;;;3.07;;
211;SDS011;16228;48.800;9.002;2023-04-25T05:18:18;3.90;;;3.60;;
211;SDS011;16228;48.800;9.002;2023-04-25T05:20:45;4.53;;;3.27;;
211;SDS011;16228;48.800;9.002;2023-04-25T05:23:13;4.20;;;3.80;;
211;SDS011;16228;48.800;9.002;2023-04-25T05:25:40;3.77;;;3.47;;
211;SDS011;16228;48.800;9.002;2023-04-25T05:28:07;3.93;;;3.53;;
211;SDS011;16228;48.800;9.002;2023-04-25T05:30:34;5.80;;;3.40;;
211;SDS011;16228;48.800;9.002;2023-04-25T05:33:01;3.73;;;3.33;;
211;SDS011;16228;48.800;9.002;2023-04-25T05:35:28;3.77;;;3.37;;
211;SDS011;16228;48.800;9.002;2023-04-25T05:37:55;4.00;;;3.33;;
211;SDS011;16228;48.800;9.002;2023-04-25T05:40:24;4.03;;;3.63;;
211;SDS011;16228;48.800;9.002;2023-04-25T05:42:51;3.30;;;3.00;;
211;SDS011;16228;48.800;9.002;2023-04-25T05:45:18;3.50;;;2.80;;
211;SDS011;16228;48.800;9.002;2023-04-25T05:47:44;4.10;;;3.67;;
211;SDS011;16228;48.800;9.002;2023-04-25T05:50:11;3.07;;;2.77;;
211;SDS011;16228;48.800;9.002;2023-04-25T05:52:38;4.60;;;3.13;;
211;SDS011;16228;48.800;9.002;2023-04-25T05:55:05;3.43;;;3.13;;
211;SDS011;16228;48.800;9.002;2023-04-25T05:57:34;3.53;;;3.23;;
211;SDS011;16228;48.800;9.002;2023-04-25T06:00:01;3.30;;;3.00;;
211;SDS011;16228;48.800;9.002;2023-04-25T06:02:34;3.47;;;3.10;;
211;SDS011;16228;48.800;9.002;2023-04-25T06:05:01;2.73;;;2.53;;
211;SDS011;16228;48.800;9.002;2023-04-25T06:07:29;2.67;;;2.47;;
211;SDS011;16228;48.800;9.002;2023-04-25T06:09:56;4.13;;;3.10;;
211;SDS011;16228;48.800;9.002;2023-04-25T06:12:23;2.90;;;2.67;;
211;SDS011;16228;48.800;9.002;2023-04-25T06:14:51;2.37;;;2.23;;
211;SDS011;16228;48.800;9.002;2023-04-25T06:17:18;4.23;;;3.30;;
211;SDS011;16228;48.800;9.002;2023-04-25T06:19:45;3.20;;;2.73;;
211;SDS011;16228;48.800;9.002;2023-04-25T06:22:12;2.60;;;2.40;;
211;SDS011;16228;48.800;9.002;2023-04-25T06:24:39;3.00;;;2.80;;
211;SDS011;16228;48.800;9.002;2023-04-25T06:27:06;4.03;;;2.70;;
211;SDS011;16228;48.800;9.002;2023-04-25T06:29:33;3.67;;;3.13;;
211;SDS011;16228;48.800;9.002;2023-04-25T06:32:01;3.00;;;2.50;;
211;SDS011;16228;48.800;9.002;2023-04-25T06:34:28;3.17;;;2.50;;
211;SDS011;16228;48.800;9.002;2023-04-25T06:36:55;2.90;;;2.67;;
211;SDS011;16228;48.800;9.002;2023-04-25T06:39:22;2.57;;;2.37;;
211;SDS011;16228;48.800;9.002;2023-04-25T06:41:50;3.23;;;3.03;;
211;SDS011;16228;48.800;9.002;2023-04-25T06:44:18;3.10;;;2.83;;
211;SDS011;16228;48.800;9.002;2023-04-25T06:46:46;4.57;;;3.70;;
211;SDS011;16228;48.800;9.002;2023-04-25T06:49:14;3.90;;;2.80;;
211;SDS011;16228;48.800;9.002;2023-04-25T06:51:41;3.70;;;3.40;;
211;SDS011;16228;48.800;9.002;2023-04-25T06:54:08;4.10;;;3.70;;
211;SDS011;16228;48.800;9.002;2023-04-25T06:56:35;4.37;;;4.07;;
211;SDS011;16228;48.800;9.002;2023-04-25T06:59:02;4.97;;;4.47;;
211;SDS011;16228;48.800;9.002;2023-04-25T07:01:29;3.93;;;3.63;;
211;SDS011;16228;48.800;9.002;2023-04-25T07:03:56;3.70;;;3.47;;
211;SDS011;16228;48.800;9.002;2023-04-25T07:06:24;4.37;;;3.97;;
211;SDS011;16228;48.800;9.002;2023-04-25T07:08:53;4.73;;;3.90;;
211;SDS011;16228;48.800;9.002;2023-04-25T07:11:20;4.43;;;3.83;;
211;SDS011;16228;48.800;9.002;2023-04-25T07:13:47;4.90;;;4.50;;
211;SDS011;16228;48.800;9.002;2023-04-25T07:16:14;5.17;;;4.00;;
211;SDS011;16228;48.800;9.002;2023-04-25T07:18:42;5.03;;;4.23;;
211;SDS011;16228;48.800;9.002;2023-04-25T07:21:09;5.60;;;4.40;;
211;SDS011;16228;48.800;9.002;2023-04-25T07:23:38;4.83;;;4.43;;
211;SDS011;16228;48.800;9.002;2023-04-25T07:26:06;9.03;;;5.40;;
211;SDS011;16228;48.800;9.002;2023-04-25T07:28:33;5.03;;;4.33;;
211;SDS011;16228;48.800;9.002;2023-04-25T07:31:00;4.07;;;3.67;;
211;SDS011;16228;48.800;9.002;2023-04-25T07:33:27;4.60;;;4.13;;
211;SDS011;16228;48.800;9.002;2023-04-25T07:35:54;6.10;;;5.43;;
211;SDS011;16228;48.800;9.002;2023-04-25T07:38:22;5.47;;;4.97;;
211;SDS011;16228;48.800;9.002;2023-04-25T07:40:50;5.90;;;5.40;;
211;SDS011;16228;48.800;9.002;2023-04-25T07:43:17;5.37;;;4.87;;
211;SDS011;16228;48.800;9.002;2023-04-25T07:45:44;5.27;;;4.77;;
211;SDS011;16228;48.800;9.002;2023-04-25T07:48:13;6.40;;;5.90;;
211;SDS011;16228;48.800;9.002;2023-04-25T07:50:43;5.70;;;5.20;;
211;SDS011;16228;48.800;9.002;2023-04-25T07:53:10;5.47;;;4.87;;
211;SDS011;16228;48.800;9.002;2023-04-25T07:55:38;5.33;;;4.17;;
211;SDS011;16228;48.800;9.002;2023-04-25T07:58:06;3.80;;;3.50;;
211;SDS011;16228;48.800;9.002;2023-04-25T08:00:33;4.27;;;3.90;;
211;SDS011;16228;48.800;9.002;2023-04-25T08:03:00;5.17;;;4.67;;
211;SDS011;16228;48.800;9.002;2023-04-25T08:05:28;4.20;;;3.63;;
211;SDS011;16228;48.800;9.002;2023-04-25T08:07:55;4.80;;;4.30;;
211;SDS011;16228;48.800;9.002;2023-04-25T08:10:24;4.77;;;3.97;;
211;SDS011;16228;48.800;9.002;2023-04-25T08:12:51;5.67;;;5.10;;
211;SDS011;16228;48.800;9.002;2023-04-25T08:15:19;3.73;;;3.33;;
211;SDS011;16228;48.800;9.002;2023-04-25T08:17:46;4.63;;;3.97;;
211;SDS011;16228;48.800;9.002;2023-04-25T08:20:13;5.50;;;4.77;;
211;SDS011;16228;48.800;9.002;2023-04-25T08:22:40;4.47;;;3.70;;
211;SDS011;16228;48.800;9.002;2023-04-25T08:25:07;4.60;;;4.20;;
211;SDS011;16228;48.800;9.002;2023-04-25T08:27:34;4.80;;;4.30;;
211;SDS011;16228;48.800;9.002;2023-04-25T08:30:01;5.27;;;4.00;;
211;SDS011;16228;48.800;9.002;2023-04-25T08:32:30;4.80;;;4.40;;
211;SDS011;16228;48.800;9.002;2023-04-25T08:34:58;4.13;;;3.73;;
211;SDS011;16228;48.800;9.002;2023-04-25T08:37:25;4.70;;;4.30;;
211;SDS011;16228;48.800;9.002;2023-04-25T08:39:52;6.60;;;5.00;;
211;SDS011;16228;48.800;9.002;2023-04-25T08:42:21;6.50;;;5.80;;
211;SDS011;16228;48.800;9.002;2023-04-25T08:44:49;7.37;;;4.80;;
211;SDS011;16228;48.800;9.002;2023-04-25T08:47:19;7.20;;;6.50;;
211;SDS011;16228;48.800;9.002;2023-04-25T08:49:50;5.17;;;4.77;;
211;SDS011;16228;48.800;9.002;2023-04-25T08:52:20;6.33;;;5.73;;
211;SDS011;16228;48.800;9.002;2023-04-25T08:54:49;6.47;;;5.97;;
211;SDS011;16228;48.800;9.002;2023-04-25T08:57:17;6.10;;;5.50;;
211;SDS011;16228;48.800;9.002;2023-04-25T08:59:45;6.80;;;6.10;;
211;SDS011;16228;48.800;9.002;2023-04-25T09:02:14;6.30;;;5.53;;
211;SDS011;16228;48.800;9.002;2023-04-25T09:04:43;6.37;;;5.73;;
211;SDS011;16228;48.800;9.002;2023-04-25T09:07:11;5.50;;;5.00;;
211;SDS011;16228;48.800;9.002;2023-04-25T09:09:40;5.37;;;4.83;;
211;SDS011;16228;48.800;9.002;2023-04-25T09:12:08;5.90;;;5.07;;
211;SDS011;16228;48.800;9.002;2023-04-25T09:14:35;5.83;;;5.20;;
211;SDS011;16228;48.800;9.002;2023-04-25T09:17:02;6.47;;;4.80;;
211;SDS011;16228;48.800;9.002;2023-04-25T09:19:33;5.57;;;5.07;;
211;SDS011;16228;48.800;9.002;2023-04-25T09:22:01;7.60;;;5.10;;
211;SDS011;16228;48.800;9.002;2023-04-25T09:24:36;5.43;;;4.93;;
211;SDS011;16228;48.800;9.002;2023-04-25T09:27:04;5.00;;;4.50;;
211;SDS011;16228;48.800;9.002;2023-04-25T09:29:32;5.57;;;4.60;;
211;SDS011;16228;48.800;9.002;2023-04-25T09:32:14;4.63;;;4.23;;
211;SDS011;16228;48.800;9.002;2023-04-25T09:34:44;4.30;;;4.00;;
211;SDS011;16228;48.800;9.002;2023-04-25T09:37:18;4.77;;;4.10;;
211;SDS011;16228;48.800;9.002;2023-04-25T09:39:48;4.60;;;3.90;;
211;SDS011;16228;48.800;9.002;2023-04-25T09:42:16;4.93;;;4.33;;
211;SDS011;16228;48.800;9.002;2023-04-25T09:44:43;3.50;;;3.20;;
211;SDS011;16228;48.800;9.002;2023-04-25T09:47:12;2.33;;;2.13;;
211;SDS011;16228;48.800;9.002;2023-04-25T09:49:42;3.00;;;2.70;;
211;SDS011;16228;48.800;9.002;2023-04-25T09:52:10;2.77;;;2.37;;
211;SDS011;16228;48.800;9.002;2023-04-25T09:54:41;3.40;;;3.10;;
211;SDS011;16228;48.800;9.002;2023-04-25T09:57:11;2.00;;;1.90;;
211;SDS011;16228;48.800;9.002;2023-04-25T09:59:39;2.27;;;2.07;;
211;SDS011;16228;48.800;9.002;2023-04-25T10:02:10;2.50;;;1.20;;
211;SDS011;16228;48.800;9.002;2023-04-25T10:04:38;0.90;;;0.90;;
211;SDS011;16228;48.800;9.002;2023-04-25T10:07:06;0.97;;;0.97;;
211;SDS011;16228;48.800;9.002;2023-04-25T10:09:36;1.40;;;1.30;;
211;SDS011;16228;48.800;9.002;2023-04-25T10:12:05;1.03;;;0.93;;
211;SDS011;16228;48.800;9.002;2023-04-25T10:14:34;0.90;;;0.90;;
211;SDS011;16228;48.800;9.002;2023-04-25T10:17:02;1.40;;;1.30;;
211;SDS011;16228;48.800;9.002;2023-04-25T10:19:29;1.13;;;1.03;;
211;SDS011;16228;48.800;9.002;2023-04-25T10:22:00;2.80;;;1.27;;
211;SDS011;16228;48.800;9.002;2023-04-25T10:24:31;1.10;;;1.00;;
211;SDS011;16228;48.800;9.002;2023-04-25T10:26:58;0.90;;;0.90;;
211;SDS011;16228;48.800;9.002;2023-04-25T10:29:26;0.80;;;0.80;;
211;SDS011;16228;48.800;9.002;2023-04-25T10:31:55;1.30;;;1.20;;
211;SDS011;16228;48.800;9.002;2023-04-25T10:34:24;1.07;;;1.07;;
211;SDS011;16228;48.800;9.002;2023-04-25T10:37:03;1.03;;;1.00;;
211;SDS011;16228;48.800;9.002;2023-04-25T10:39:32;1.30;;;1.20;;
211;SDS011;16228;48.800;9.002;2023-04-25T10:41:59;2.30;;;2.03;;
211;SDS011;16228;48.800;9.002;2023-04-25T10:44:28;2.70;;;2.40;;
211;SDS011;16228;48.800;9.002;2023-04-25T10:46:58;3.50;;;3.20;;
211;SDS011;16228;48.800;9.002;2023-04-25T10:49:30;4.63;;;4.03;;
211;SDS011;16228;48.800;9.002;2023-04-25T10:54:53;4.63;;;4.23;;
211;SDS011;16228;48.800;9.002;2023-04-25T10:57:31;6.17;;;5.17;;
211;SDS011;16228;48.800;9.002;2023-04-25T11:00:19;4.60;;;4.30;;
211;SDS011;16228;48.800;9.002;2023-04-25T11:02:57;4.77;;;4.37;;
211;SDS011;16228;48.800;9.002;2023-04-25T11:05:28;5.03;;;4.60;;
211;SDS011;16228;48.800;9.002;2023-04-25T11:07:58;5.10;;;4.70;;
211;SDS011;16228;48.800;9.002;2023-04-25T11:10:26;4.00;;;3.70;;
211;SDS011;16228;48.800;9.002;2023-04-25T11:12:54;4.63;;;3.90;;
211;SDS011;16228;48.800;9.002;2023-04-25T11:15:21;3.30;;;3.10;;
211;SDS011;16228;48.800;9.002;2023-04-25T11:17:50;2.93;;;2.53;;
211;SDS011;16228;48.800;9.002;2023-04-25T11:20:19;2.20;;;2.00;;
211;SDS011;16228;48.800;9.002;2023-04-25T11:22:46;3.70;;;3.17;;
211;SDS011;16228;48.800;9.002;2023-04-25T11:25:14;4.50;;;2.73;;
211;SDS011;16228;48.800;9.002;2023-04-25T11:27:51;3.73;;;3.17;;
211;SDS011;16228;48.800;9.002;2023-04-25T11:30:19;4.00;;;3.70;;
211;SDS011;16228;48.800;9.002;2023-04-25T11:32:47;3.00;;;2.80;;
211;SDS011;16228;48.800;9.002;2023-04-25T11:35:15;4.33;;;2.80;;
211;SDS011;16228;48.800;9.002;2023-04-25T11:37:43;3.27;;;3.00;;
211;SDS011;16228;48.800;9.002;2023-04-25T11:40:10;3.53;;;3.23;;
211;SDS011;16228;48.800;9.002;2023-04-25T11:42:37;4.20;;;3.80;;
211;SDS011;16228;48.800;9.002;2023-04-25T11:45:05;4.20;;;3.80;;
211;SDS011;16228;48.800;9.002;2023-04-25T11:47:33;3.37;;;2.73;;
211;SDS011;16228;48.800;9.002;2023-04-25T11:50:00;2.57;;;2.37;;
211;SDS011;16228;48.800;9.002;2023-04-25T11:52:36;6.50;;;4.07;;
211;SDS011;16228;48.800;9.002;2023-04-25T11:55:05;4.43;;;4.03;;
211;SDS011;16228;48.800;9.002;2023-04-25T11:57:33;4.00;;;3.70;;
211;SDS011;16228;48.800;9.002;2023-04-25T12:00:05;4.77;;;3.37;;
211;SDS011;16228;48.800;9.002;2023-04-25T12:02:40;4.43;;;3.93;;
211;SDS011;16228;48.800;9.002;2023-04-25T12:05:08;8.60;;;5.63;;
211;SDS011;16228;48.800;9.002;2023-04-25T12:07:36;5.40;;;4.43;;
211;SDS011;16228;48.800;9.002;2023-04-25T12:10:04;5.10;;;4.60;;
211;SDS011;16228;48.800;9.002;2023-04-25T12:12:33;8.17;;;5.63;;
211;SDS011;16228;48.800;9.002;2023-04-25T12:15:07;5.10;;;4.60;;
211;SDS011;16228;48.800;9.002;2023-04-25T12:17:36;5.97;;;5.37;;
211;SDS011;16228;48.800;9.002;2023-04-25T12:20:07;5.60;;;5.00;;
211;SDS011;16228;48.800;9.002;2023-04-25T12:22:37;5.37;;;4.87;;
211;SDS011;16228;48.800;9.002;2023-04-25T12:25:10;4.80;;;4.30;;
211;SDS011;16228;48.800;9.002;2023-04-25T12:27:37;6.83;;;5.17;;
211;SDS011;16228;48.800;9.002;2023-04-25T12:30:06;5.43;;;4.17;;
211;SDS011;16228;48.800;9.002;2023-04-25T12:32:35;6.33;;;4.80;;
211;SDS011;16228;48.800;9.002;2023-04-25T12:35:03;5.57;;;4.43;;
211;SDS011;16228;48.800;9.002;2023-04-25T12:37:31;5.80;;;5.17;;
211;SDS011;16228;48.800;9.002;2023-04-25T12:40:00;6.20;;;4.53;;
211;SDS011;16228;48.800;9.002;2023-04-25T12:42:28;5.40;;;4.60;;
211;SDS011;16228;48.800;9.002;2023-04-25T12:44:55;5.60;;;4.87;;
211;SDS011;16228;48.800;9.002;2023-04-25T12:47:22;6.33;;;5.70;;
211;SDS011;16228;48.800;9.002;2023-04-25T12:49:48;4.97;;;4.40;;
211;SDS011;16228;48.800;9.002;2023-04-25T12:52:15;5.33;;;4.83;;
211;SDS011;16228;48.800;9.002;2023-04-25T12:54:42;5.03;;;4.53;;
211;SDS011;16228;48.800;9.002;2023-04-25T12:57:11;5.70;;;4.60;;
211;SDS011;16228;48.800;9.002;2023-04-25T12:59:38;5.87;;;4.87;;
211;SDS011;16228;48.800;9.002;2023-04-25T13:02:05;5.60;;;5.10;;
211;SDS011;16228;48.800;9.002;2023-04-25T13:04:32;6.93;;;5.40;;
211;SDS011;16228;48.800;9.002;2023-04-25T13:06:59;5.50;;;4.70;;
211;SDS011;16228;48.800;9.002;2023-04-25T13:09:26;8.30;;;5.03;;
211;SDS011;16228;48.800;9.002;2023-04-25T13:11:53;6.73;;;5.30;;
211;SDS011;16228;48.800;9.002;2023-04-25T13:14:21;6.37;;;5.10;;
211;SDS011;16228;48.800;9.002;2023-04-25T13:16:48;5.93;;;5.43;;
211;SDS011;16228;48.800;9.002;2023-04-25T13:19:15;6.87;;;6.20;;
211;SDS011;16228;48.800;9.002;2023-04-25T13:21:42;7.73;;;7.03;;
211;SDS011;16228;48.800;9.002;2023-04-25T13:24:09;7.00;;;6.27;;
211;SDS011;16228;48.800;9.002;2023-04-25T13:26:36;6.57;;;5.57;;
211;SDS011;16228;48.800;9.002;2023-04-25T13:29:03;6.83;;;6.20;;
211;SDS011;16228;48.800;9.002;2023-04-25T13:31:31;7.37;;;6.10;;
211;SDS011;16228;48.800;9.002;2023-04-25T13:33:58;6.77;;;5.77;;
211;SDS011;16228;48.800;9.002;2023-04-25T13:36:25;8.73;;;7.10;;
211;SDS011;16228;48.800;9.002;2023-04-25T13:38:53;8.87;;;7.43;;
211;SDS011;16228;48.800;9.002;2023-04-25T13:41:20;9.27;;;8.03;;
211;SDS011;16228;48.800;9.002;2023-04-25T13:43:47;7.53;;;6.47;;
211;SDS011;16228;48.800;9.002;2023-04-25T13:46:14;7.07;;;6.23;;
211;SDS011;16228;48.800;9.002;2023-04-25T13:48:43;5.90;;;5.20;;
211;SDS011;16228;48.800;9.002;2023-04-25T13:51:13;5.40;;;4.67;;
211;SDS011;16228;48.800;9.002;2023-04-25T13:53:41;5.37;;;4.57;;
211;SDS011;16228;48.800;9.002;2023-04-25T13:56:08;4.70;;;4.30;;
211;SDS011;16228;48.800;9.002;2023-04-25T13:58:36;4.83;;;3.80;;
211;SDS011;16228;48.800;9.002;2023-04-25T14:01:03;5.10;;;3.87;;
211;SDS011;16228;48.800;9.002;2023-04-25T14:03:30;3.80;;;3.50;;
211;SDS011;16228;48.800;9.002;2023-04-25T14:05:59;4.70;;;4.30;;
211;SDS011;16228;48.800;9.002;2023-04-25T14:08:26;3.73;;;3.43;;
211;SDS011;16228;48.800;9.002;2023-04-25T14:10:53;3.37;;;3.10;;
211;SDS011;16228;48.800;9.002;2023-04-25T14:13:20;4.83;;;4.27;;
211;SDS011;16228;48.800;9.002;2023-04-25T14:15:48;4.77;;;4.30;;
211;SDS011;16228;48.800;9.002;2023-04-25T14:18:16;5.43;;;4.33;;
211;SDS011;16228;48.800;9.002;2023-04-25T14:20:44;5.03;;;4.17;;
211;SDS011;16228;48.800;9.002;2023-04-25T14:23:12;4.83;;;4.20;;
211;SDS011;16228;48.800;9.002;2023-04-25T14:25:39;6.90;;;4.20;;
211;SDS011;16228;48.800;9.002;2023-04-25T14:28:07;5.13;;;3.90;;
211;SDS011;16228;48.800;9.002;2023-04-25T14:30:34;5.93;;;4.30;;
211;SDS011;16228;48.800;9.002;2023-04-25T14:33:01;5.30;;;4.80;;
211;SDS011;16228;48.800;9.002;2023-04-25T14:35:28;4.43;;;4.03;;
211;SDS011;16228;48.800;9.002;2023-04-25T14:37:55;5.10;;;4.40;;
211;SDS011;16228;48.800;9.002;2023-04-25T14:40:25;4.50;;;4.10;;
211;SDS011;16228;48.800;9.002;2023-04-25T14:42:52;3.97;;;3.40;;
211;SDS011;16228;48.800;9.002;2023-04-25T14:45:19;5.00;;;4.07;;
211;SDS011;16228;48.800;9.002;2023-04-25T14:47:46;4.00;;;3.43;;
211;SDS011;16228;48.800;9.002;2023-04-25T14:50:13;4.17;;;3.77;;
211;SDS011;16228;48.800;9.002;2023-04-25T14:52:40;4.03;;;3.63;;
211;SDS011;16228;48.800;9.002;2023-04-25T14:55:08;3.50;;;3.20;;
211;SDS011;16228;48.800;9.002;2023-04-25T14:57:36;4.50;;;3.90;;
211;SDS011;16228;48.800;9.002;2023-04-25T15:00:04;4.70;;;4.20;;
211;SDS011;16228;48.800;9.002;2023-04-25T15:02:34;3.63;;;3.27;;
211;SDS011;16228;48.800;9.002;2023-04-25T15:05:02;4.40;;;3.87;;
211;SDS011;16228;48.800;9.002;2023-04-25T15:07:29;5.87;;;4.13;;
211;SDS011;16228;48.800;9.002;2023-04-25T15:09:56;6.13;;;4.77;;
211;SDS011;16228;48.800;9.002;2023-04-25T15:12:23;4.60;;;4.17;;
211;SDS011;16228;48.800;9.002;2023-04-25T15:14:52;5.37;;;4.17;;
211;SDS011;16228;48.800;9.002;2023-04-25T15:17:19;5.93;;;4.30;;
211;SDS011;16228;48.800;9.002;2023-04-25T15:19:46;5.00;;;4.07;;
211;SDS011;16228;48.800;9.002;2023-04-25T15:22:13;5.13;;;4.30;;